Time;durP1;ratioP1;P1;durP2;ratioP2;P2;SDS_P1;SDS_P2;PMS_P1;PMS_P2;Temp;Humidity;BMP_temperature;BMP_pressure;BME280_temperature;BME280_humidity;BME280_pressure;Samples;Min_cycle;Max_cycle;Signal;HPM_P1;HPM_P2
2023/02/28 00:01:19;;;;;;;0.63;0.63;;;;;;;;;;7420354;19;20149;-95
2023/02/28 00:03:45;;;;;;;0.67;0.67;;;;;;;;;;7418679;19;20155;-96
2023/02/28 00:06:12;;;;;;;0.70;0.70;;;;;;;;;;7419883;19;20141;-94
2023/02/28 00:08:39;;;;;;;0.50;0.50;;;;;;;;;;7419448;19;20175;-93
2023/02/28 00:11:11;;;;;;;0.70;0.70;;;;;;;;;;7420700;19;20164;-93
2023/02/28 00:13:41;;;;;;;0.60;0.60;;;;;;;;;;7420131;19;20137;-94
2023/02/28 00:16:13;;;;;;;0.87;0.87;;;;;;;;;;7418704;19;20145;-93
2023/02/28 00:18:40;;;;;;;1.13;0.70;;;;;;;;;;7420960;19;20214;-94
2023/02/28 00:21:07;;;;;;;0.30;0.30;;;;;;;;;;7423775;19;20429;-94
2023/02/28 00:23:34;;;;;;;1.10;1.10;;;;;;;;;;7425173;19;20150;-95
2023/02/28 00:26:01;;;;;;;1.20;0.77;;;;;;;;;;7424933;19;20164;-96
2023/02/28 00:28:28;;;;;;;0.73;0.73;;;;;;;;;;7424455;19;20208;-95
2023/02/28 00:30:55;;;;;;;0.70;0.70;;;;;;;;;;7426613;19;20180;-96
2023/02/28 00:33:21;;;;;;;0.53;0.53;;;;;;;;;;7425222;19;20149;-94
2023/02/28 00:35:51;;;;;;;0.40;0.40;;;;;;;;;;7426376;19;20162;-95
2023/02/28 00:38:17;;;;;;;0.80;0.80;;;;;;;;;;7422301;19;20553;-96
2023/02/28 00:40:44;;;;;;;0.40;0.40;;;;;;;;;;7425924;19;20151;-93
2023/02/28 00:43:11;;;;;;;0.80;0.73;;;;;;;;;;7427075;19;20133;-94
2023/02/28 00:45:37;;;;;;;0.77;0.77;;;;;;;;;;7423322;19;20187;-95
2023/02/28 00:48:04;;;;;;;0.63;0.63;;;;;;;;;;7425014;19;20133;-93
2023/02/28 00:50:31;;;;;;;0.73;0.60;;;;;;;;;;7423706;19;20130;-94
2023/02/28 00:52:58;;;;;;;0.70;0.70;;;;;;;;;;7421709;19;20172;-95
2023/02/28 00:55:24;;;;;;;5.90;0.60;;;;;;;;;;7415549;19;20140;-94
2023/02/28 00:57:51;;;;;;;0.80;0.80;;;;;;;;;;7423755;19;20129;-96
2023/02/28 01:00:29;;;;;;;1.33;0.73;;;;;;;;;;7429352;19;20144;-96
2023/02/28 01:03:00;;;;;;;4.33;0.90;;;;;;;;;;7430322;19;20137;-96
2023/02/28 01:05:27;;;;;;;0.63;0.63;;;;;;;;;;7428080;19;20129;-96
2023/02/28 01:07:54;;;;;;;0.70;0.70;;;;;;;;;;7427121;19;20137;-96
2023/02/28 01:10:22;;;;;;;1.50;1.03;;;;;;;;;;7427531;19;20702;-96
2023/02/28 01:12:49;;;;;;;1.80;1.00;;;;;;;;;;7427255;19;20145;-96
2023/02/28 01:15:17;;;;;;;0.87;0.87;;;;;;;;;;7426266;19;20176;-96
2023/02/28 01:17:46;;;;;;;1.23;1.13;;;;;;;;;;7420004;19;20155;-96
2023/02/28 01:20:13;;;;;;;0.50;0.50;;;;;;;;;;7421567;19;20179;-96
2023/02/28 01:22:40;;;;;;;0.83;0.83;;;;;;;;;;7421374;19;20141;-96
2023/02/28 01:25:07;;;;;;;0.67;0.67;;;;;;;;;;7425204;19;20140;-96
2023/02/28 01:27:35;;;;;;;1.57;0.60;;;;;;;;;;7424748;19;20149;-96
2023/02/28 01:30:03;;;;;;;0.90;0.73;;;;;;;;;;7423267;19;20736;-96
2023/02/28 01:32:30;;;;;;;0.60;0.60;;;;;;;;;;7427001;19;20204;-95
2023/02/28 01:34:58;;;;;;;0.70;0.70;;;;;;;;;;7425805;19;20145;-95
2023/02/28 01:37:25;;;;;;;1.00;0.80;;;;;;;;;;7425601;19;20133;-96
2023/02/28 01:39:53;;;;;;;0.80;0.80;;;;;;;;;;7423449;19;20175;-96
2023/02/28 01:42:22;;;;;;;0.93;0.93;;;;;;;;;;7428013;19;20141;-96
2023/02/28 01:45:17;;;;;;;0.50;0.50;;;;;;;;;;7418449;19;20184;-95
2023/02/28 01:47:44;;;;;;;0.73;0.70;;;;;;;;;;7419587;19;20125;-95
2023/02/28 01:50:19;;;;;;;1.13;1.03;;;;;;;;;;7416105;19;20171;-94
2023/02/28 01:52:48;;;;;;;0.50;0.50;;;;;;;;;;7418669;19;20173;-95
2023/02/28 01:55:17;;;;;;;0.50;0.50;;;;;;;;;;7417439;19;20180;-95
2023/02/28 01:57:47;;;;;;;1.17;1.03;;;;;;;;;;7420535;19;20126;-95
2023/02/28 03:49:03;;;;;;;1.20;1.10;;;;;;;;;;7429921;19;20163;-95
2023/02/28 03:51:32;;;;;;;0.90;0.90;;;;;;;;;;7431792;19;20121;-96
2023/02/28 03:54:15;;;;;;;0.50;0.50;;;;;;;;;;7430136;19;20180;-95
2023/02/28 03:57:23;;;;;;;1.03;0.93;;;;;;;;;;7431378;19;20145;-95
2023/02/28 03:59:56;;;;;;;0.87;0.67;;;;;;;;;;7426586;19;20201;-94
2023/02/28 04:02:32;;;;;;;0.83;0.67;;;;;;;;;;7431158;19;20145;-93
2023/02/28 04:05:06;;;;;;;0.57;0.57;;;;;;;;;;7432211;19;20141;-95
2023/02/28 04:07:36;;;;;;;1.27;0.70;;;;;;;;;;7430713;19;20148;-95
2023/02/28 04:10:07;;;;;;;0.70;0.70;;;;;;;;;;7430546;19;20191;-95
2023/02/28 04:12:36;;;;;;;0.70;0.70;;;;;;;;;;7430874;19;20181;-94
2023/02/28 04:15:07;;;;;;;0.70;0.70;;;;;;;;;;7429849;19;20140;-95
2023/02/28 04:17:44;;;;;;;0.63;0.63;;;;;;;;;;7426384;19;20153;-95
2023/02/28 04:20:12;;;;;;;1.23;0.97;;;;;;;;;;7429276;19;20200;-95
2023/02/28 04:22:42;;;;;;;0.90;0.70;;;;;;;;;;7431011;19;20214;-94
2023/02/28 04:36:22;;;;;;;0.53;0.53;;;;;;;;;;7434180;19;20165;-96
2023/02/28 10:52:36;;;;;;;0.60;0.60;;;;;;;;;;7402858;19;20152;-89
2023/02/28 10:55:24;;;;;;;0.90;0.90;;;;;;;;;;7400774;19;20209;-90
2023/02/28 10:57:52;;;;;;;0.60;0.60;;;;;;;;;;7396888;19;20526;-89
2023/02/28 11:00:21;;;;;;;0.97;0.90;;;;;;;;;;7401077;19;20137;-89
2023/02/28 11:02:48;;;;;;;1.63;0.73;;;;;;;;;;7401070;19;20147;-90
2023/02/28 11:05:29;;;;;;;0.73;0.73;;;;;;;;;;7392551;19;20145;-89
2023/02/28 11:08:03;;;;;;;0.63;0.63;;;;;;;;;;7394791;19;20169;-90
2023/02/28 11:10:34;;;;;;;0.80;0.80;;;;;;;;;;7396025;19;20185;-90
2023/02/28 11:13:01;;;;;;;0.40;0.40;;;;;;;;;;7395040;19;20137;-89
2023/02/28 11:15:30;;;;;;;0.97;0.97;;;;;;;;;;7395807;19;20148;-90
2023/02/28 11:18:00;;;;;;;1.07;0.80;;;;;;;;;;7390597;19;20165;-89
2023/02/28 11:20:30;;;;;;;0.33;0.33;;;;;;;;;;7391620;19;20249;-90
2023/02/28 11:22:57;;;;;;;0.60;0.60;;;;;;;;;;7393594;19;20236;-90
2023/02/28 11:25:32;;;;;;;0.77;0.77;;;;;;;;;;7395693;19;20624;-92
2023/02/28 11:28:06;;;;;;;0.80;0.80;;;;;;;;;;7397311;19;20156;-91
2023/02/28 11:30:38;;;;;;;1.10;1.10;;;;;;;;;;7398782;19;20153;-92
2023/02/28 11:33:29;;;;;;;0.40;0.40;;;;;;;;;;7429047;19;20140;-88
2023/02/28 12:00:27;;;;;;;0.80;0.43;;;;;;;;;;7425650;19;20181;-96
2023/02/28 12:03:04;;;;;;;0.47;0.47;;;;;;;;;;7430707;19;20141;-96
2023/02/28 12:19:17;;;;;;;0.30;0.30;;;;;;;;;;7395783;19;20165;-89
2023/02/28 12:22:12;;;;;;;0.37;0.37;;;;;;;;;;7395792;19;20141;-91
2023/02/28 12:24:50;;;;;;;0.30;0.30;;;;;;;;;;7395844;19;20165;-91
2023/02/28 12:27:19;;;;;;;0.60;0.60;;;;;;;;;;7392312;19;20157;-92
2023/02/28 12:29:50;;;;;;;0.70;0.70;;;;;;;;;;7394699;19;20141;-93
2023/02/28 12:32:22;;;;;;;0.60;0.60;;;;;;;;;;7397635;19;20206;-89
2023/02/28 12:35:02;;;;;;;0.70;0.70;;;;;;;;;;7394710;19;20593;-91
2023/02/28 12:37:31;;;;;;;0.57;0.57;;;;;;;;;;7392961;19;20164;-90
2023/02/28 12:40:05;;;;;;;0.37;0.37;;;;;;;;;;7393634;19;20169;-92
2023/02/28 12:42:54;;;;;;;0.30;0.30;;;;;;;;;;7393952;19;20140;-92
2023/02/28 12:45:32;;;;;;;0.60;0.60;;;;;;;;;;7393268;19;20178;-92
2023/02/28 12:48:06;;;;;;;1.50;1.33;;;;;;;;;;7391573;19;20233;-91
2023/02/28 12:50:34;;;;;;;0.93;0.73;;;;;;;;;;7393610;19;20638;-91
2023/02/28 12:53:06;;;;;;;0.80;0.80;;;;;;;;;;7393692;19;20165;-91
2023/02/28 12:55:54;;;;;;;0.40;0.40;;;;;;;;;;7392808;19;20149;-92
2023/02/28 12:58:39;;;;;;;0.60;0.60;;;;;;;;;;7393890;19;20151;-92
2023/02/28 13:01:28;;;;;;;0.80;0.80;;;;;;;;;;7395067;19;20204;-92
2023/02/28 13:04:07;;;;;;;0.53;0.53;;;;;;;;;;7399902;19;20144;-90
2023/02/28 13:06:45;;;;;;;0.40;0.40;;;;;;;;;;7398029;19;20201;-86
2023/02/28 13:09:14;;;;;;;0.70;0.70;;;;;;;;;;7401116;19;20172;-92
2023/02/28 13:11:44;;;;;;;0.33;0.33;;;;;;;;;;7403350;19;20141;-91
2023/02/28 13:14:32;;;;;;;0.70;0.50;;;;;;;;;;7408061;19;20136;-91
2023/02/28 13:16:59;;;;;;;0.30;0.30;;;;;;;;;;7414764;19;20172;-91
2023/02/28 13:19:30;;;;;;;1.90;1.73;;;;;;;;;;7425073;19;20141;-91
2023/02/28 13:21:58;;;;;;;0.30;0.30;;;;;;;;;;7426679;19;20140;-90
2023/02/28 13:24:37;;;;;;;0.30;0.30;;;;;;;;;;7415370;19;20133;-91
2023/02/28 13:27:03;;;;;;;1.13;1.13;;;;;;;;;;7414599;19;20310;-93
2023/02/28 13:29:34;;;;;;;0.30;0.30;;;;;;;;;;7413119;19;20512;-92
2023/02/28 13:32:07;;;;;;;0.30;0.30;;;;;;;;;;7406342;19;20140;-92
2023/02/28 13:34:54;;;;;;;0.30;0.30;;;;;;;;;;7406073;19;20144;-90
2023/02/28 13:37:34;;;;;;;0.40;0.40;;;;;;;;;;7405831;19;20173;-92
2023/02/28 13:40:10;;;;;;;0.20;0.20;;;;;;;;;;7412919;19;20137;-92
2023/02/28 13:42:49;;;;;;;1.63;0.90;;;;;;;;;;7413336;19;20125;-92
2023/02/28 13:45:27;;;;;;;1.07;1.07;;;;;;;;;;7411239;19;20137;-91
2023/02/28 13:47:59;;;;;;;1.50;0.80;;;;;;;;;;7412881;19;20165;-93
2023/02/28 13:50:25;;;;;;;0.70;0.70;;;;;;;;;;7411459;19;20165;-93
2023/02/28 13:53:00;;;;;;;0.70;0.70;;;;;;;;;;7411902;19;20153;-92
2023/02/28 13:55:52;;;;;;;0.97;0.90;;;;;;;;;;7416468;19;20124;-92
2023/02/28 13:58:42;;;;;;;1.23;0.90;;;;;;;;;;7417029;19;20145;-91
2023/02/28 14:01:22;;;;;;;1.20;1.20;;;;;;;;;;7413192;19;20600;-92
2023/02/28 14:04:10;;;;;;;0.77;0.77;;;;;;;;;;7413076;19;20161;-92
2023/02/28 14:06:38;;;;;;;1.17;1.10;;;;;;;;;;7416889;19;20165;-92
2023/02/28 14:09:11;;;;;;;0.73;0.70;;;;;;;;;;7417987;19;20477;-93
2023/02/28 14:11:40;;;;;;;1.20;1.13;;;;;;;;;;7416774;19;20149;-90
2023/02/28 14:14:08;;;;;;;0.83;0.83;;;;;;;;;;7413926;19;20149;-91
2023/02/28 14:16:41;;;;;;;0.73;0.73;;;;;;;;;;7425887;19;20170;-93
2023/02/28 14:19:40;;;;;;;0.83;0.83;;;;;;;;;;7415490;19;20137;-92
2023/02/28 14:22:47;;;;;;;0.80;0.80;;;;;;;;;;7425202;19;20155;-92
2023/02/28 14:25:37;;;;;;;1.00;1.00;;;;;;;;;;7429817;19;20132;-91
2023/02/28 14:28:11;;;;;;;1.00;0.90;;;;;;;;;;7420691;19;20771;-91
2023/02/28 14:31:01;;;;;;;1.03;1.03;;;;;;;;;;7430743;19;20141;-90
2023/02/28 14:33:38;;;;;;;1.20;1.13;;;;;;;;;;7426162;19;20173;-90
2023/02/28 14:36:18;;;;;;;1.07;0.97;;;;;;;;;;7428573;19;20121;-91
2023/02/28 14:38:53;;;;;;;1.50;1.17;;;;;;;;;;7433294;19;20176;-90
2023/02/28 14:41:31;;;;;;;0.90;0.90;;;;;;;;;;7431848;19;20170;-90
2023/02/28 14:44:00;;;;;;;1.53;0.77;;;;;;;;;;7431859;19;20137;-90
2023/02/28 14:46:34;;;;;;;1.97;1.80;;;;;;;;;;7430658;19;20193;-92
2023/02/28 14:49:01;;;;;;;1.70;1.60;;;;;;;;;;7432900;19;20173;-90
2023/02/28 14:51:27;;;;;;;0.83;0.83;;;;;;;;;;7431673;19;20160;-92
2023/02/28 14:53:59;;;;;;;1.40;1.30;;;;;;;;;;7429623;19;20129;-90
2023/02/28 14:56:37;;;;;;;0.70;0.70;;;;;;;;;;7431382;19;20202;-90
2023/02/28 14:59:05;;;;;;;0.80;0.73;;;;;;;;;;7427346;19;20137;-89
2023/02/28 15:01:33;;;;;;;2.03;1.50;;;;;;;;;;7430134;19;20133;-90
2023/02/28 15:04:05;;;;;;;3.37;1.30;;;;;;;;;;7429498;19;20117;-90
2023/02/28 15:06:33;;;;;;;1.23;1.17;;;;;;;;;;7429178;19;20201;-90
2023/02/28 15:09:16;;;;;;;1.57;1.40;;;;;;;;;;7428045;19;20153;-91
2023/02/28 15:11:46;;;;;;;2.30;2.10;;;;;;;;;;7431366;19;20169;-92
2023/02/28 15:14:20;;;;;;;0.97;0.90;;;;;;;;;;7429681;19;20137;-92
2023/02/28 15:16:52;;;;;;;1.70;1.60;;;;;;;;;;7428802;19;20156;-92
2023/02/28 15:19:26;;;;;;;2.40;1.73;;;;;;;;;;7428371;19;20152;-91
2023/02/28 15:21:57;;;;;;;0.70;0.70;;;;;;;;;;7432743;19;20121;-90
2023/02/28 15:24:39;;;;;;;0.77;0.77;;;;;;;;;;7432415;19;20129;-91
2023/02/28 15:27:10;;;;;;;1.73;1.63;;;;;;;;;;7429689;19;20164;-92
2023/02/28 15:29:44;;;;;;;2.00;1.50;;;;;;;;;;7431612;19;20137;-90
2023/02/28 15:32:23;;;;;;;0.67;0.67;;;;;;;;;;7432460;19;20161;-92
2023/02/28 15:34:50;;;;;;;2.30;1.10;;;;;;;;;;7414644;19;20192;-91
2023/02/28 15:37:32;;;;;;;1.03;1.03;;;;;;;;;;7420743;19;20201;-91
2023/02/28 15:40:36;;;;;;;2.17;0.97;;;;;;;;;;7430963;19;20141;-92
2023/02/28 15:43:13;;;;;;;3.80;1.27;;;;;;;;;;7431743;19;20140;-91
2023/02/28 15:45:58;;;;;;;1.10;1.00;;;;;;;;;;7425574;19;20141;-92
2023/02/28 15:48:28;;;;;;;1.30;1.20;;;;;;;;;;7424473;19;20133;-91
2023/02/28 15:51:08;;;;;;;0.90;0.90;;;;;;;;;;7428217;19;20160;-91
2023/02/28 15:53:44;;;;;;;1.10;1.10;;;;;;;;;;7430733;19;20137;-91
2023/02/28 15:56:31;;;;;;;1.47;1.20;;;;;;;;;;7431236;19;20129;-90
2023/02/28 15:59:02;;;;;;;1.60;1.33;;;;;;;;;;7430338;19;20153;-92
2023/02/28 16:01:36;;;;;;;1.23;1.20;;;;;;;;;;7428872;19;20161;-90
2023/02/28 16:04:31;;;;;;;1.70;1.33;;;;;;;;;;7432370;19;20160;-92
2023/02/28 16:06:57;;;;;;;1.00;1.00;;;;;;;;;;7430708;19;20185;-94
2023/02/28 16:09:24;;;;;;;3.17;1.70;;;;;;;;;;7431045;19;20139;-91
2023/02/28 16:11:54;;;;;;;1.63;1.17;;;;;;;;;;7429839;19;20149;-91
2023/02/28 16:14:29;;;;;;;2.17;1.17;;;;;;;;;;7429659;19;20189;-92
2023/02/28 16:17:02;;;;;;;1.10;1.00;;;;;;;;;;7429908;19;20164;-91
2023/02/28 16:19:29;;;;;;;1.27;1.23;;;;;;;;;;7432332;19;20137;-92
2023/02/28 16:21:55;;;;;;;1.40;1.00;;;;;;;;;;7430288;19;20177;-93
2023/02/28 16:24:22;;;;;;;1.50;1.47;;;;;;;;;;7430686;19;20133;-94
2023/02/28 16:26:51;;;;;;;1.73;1.23;;;;;;;;;;7429624;19;20181;-91
2023/02/28 16:29:24;;;;;;;1.77;1.67;;;;;;;;;;7430134;19;20136;-91
2023/02/28 16:31:50;;;;;;;0.60;0.60;;;;;;;;;;7428654;19;20146;-92
2023/02/28 16:34:17;;;;;;;1.00;1.00;;;;;;;;;;7429165;19;20145;-92
2023/02/28 16:36:46;;;;;;;1.67;1.10;;;;;;;;;;7429721;19;20173;-90
2023/02/28 16:39:12;;;;;;;1.00;0.97;;;;;;;;;;7427313;19;20191;-91
2023/02/28 16:41:42;;;;;;;4.10;1.20;;;;;;;;;;7430357;19;20139;-90
2023/02/28 16:44:17;;;;;;;1.60;1.43;;;;;;;;;;7430628;19;20145;-91
2023/02/28 16:46:44;;;;;;;1.40;1.07;;;;;;;;;;7430077;19;20172;-91
2023/02/28 16:49:14;;;;;;;1.17;1.07;;;;;;;;;;7430784;19;20140;-90
2023/02/28 16:51:41;;;;;;;1.10;1.10;;;;;;;;;;7429668;19;20133;-92
2023/02/28 16:54:07;;;;;;;1.10;1.10;;;;;;;;;;7428411;19;20137;-92
2023/02/28 16:56:34;;;;;;;2.03;1.83;;;;;;;;;;7427960;19;20165;-91
2023/02/28 16:59:01;;;;;;;1.37;1.27;;;;;;;;;;7429214;19;20184;-91
2023/02/28 17:01:28;;;;;;;1.10;1.03;;;;;;;;;;7428884;19;20511;-90
2023/02/28 17:03:55;;;;;;;1.40;1.30;;;;;;;;;;7428032;19;20148;-90
2023/02/28 17:06:25;;;;;;;1.30;1.20;;;;;;;;;;7427959;19;20165;-91
2023/02/28 17:08:52;;;;;;;1.83;1.73;;;;;;;;;;7428119;19;20212;-90
2023/02/28 17:11:18;;;;;;;1.43;1.33;;;;;;;;;;7429678;19;20161;-91
2023/02/28 17:13:46;;;;;;;1.70;1.50;;;;;;;;;;7429106;19;20137;-90
2023/02/28 17:16:32;;;;;;;1.50;1.40;;;;;;;;;;7425958;19;20173;-91
2023/02/28 17:19:03;;;;;;;1.93;1.83;;;;;;;;;;7429329;19;20164;-91
2023/02/28 17:21:31;;;;;;;2.83;1.80;;;;;;;;;;7427175;19;20141;-91
2023/02/28 17:23:58;;;;;;;1.67;1.57;;;;;;;;;;7428883;19;20133;-91
2023/02/28 17:26:24;;;;;;;2.07;1.97;;;;;;;;;;7427284;19;20194;-91
2023/02/28 17:28:57;;;;;;;2.37;2.17;;;;;;;;;;7429020;19;20129;-91
2023/02/28 17:31:25;;;;;;;2.30;2.17;;;;;;;;;;7426613;19;20145;-91
2023/02/28 17:33:52;;;;;;;1.37;1.27;;;;;;;;;;7429107;19;20136;-91
2023/02/28 17:36:26;;;;;;;0.87;0.87;;;;;;;;;;7426630;19;20168;-91
2023/02/28 17:38:54;;;;;;;2.40;1.50;;;;;;;;;;7427735;19;20441;-92
2023/02/28 17:41:21;;;;;;;2.50;1.87;;;;;;;;;;7423577;19;20133;-93
2023/02/28 17:43:50;;;;;;;1.90;1.33;;;;;;;;;;7426010;19;20141;-91
2023/02/28 17:46:20;;;;;;;2.17;2.07;;;;;;;;;;7425814;19;20209;-91
2023/02/28 17:48:48;;;;;;;2.33;2.20;;;;;;;;;;7428877;19;20133;-91
2023/02/28 17:51:15;;;;;;;2.67;2.43;;;;;;;;;;7433890;19;20165;-91
2023/02/28 17:53:42;;;;;;;1.67;1.57;;;;;;;;;;7436835;19;20133;-91
2023/02/28 17:56:18;;;;;;;2.60;2.07;;;;;;;;;;7433866;19;20185;-90
2023/02/28 17:58:44;;;;;;;1.20;1.20;;;;;;;;;;7436340;19;20149;-91
2023/02/28 18:01:12;;;;;;;3.17;1.67;;;;;;;;;;7435908;19;20168;-91
2023/02/28 18:03:39;;;;;;;1.17;1.07;;;;;;;;;;7435520;19;20132;-91
2023/02/28 18:06:07;;;;;;;2.07;1.87;;;;;;;;;;7435485;19;20145;-91
2023/02/28 18:08:35;;;;;;;5.00;2.07;;;;;;;;;;7432278;19;20164;-91
2023/02/28 18:11:01;;;;;;;1.60;1.50;;;;;;;;;;7435237;19;20161;-91
2023/02/28 18:13:28;;;;;;;1.67;1.47;;;;;;;;;;7431796;19;20156;-91
2023/02/28 18:15:55;;;;;;;1.33;1.23;;;;;;;;;;7425135;19;20161;-90
2023/02/28 18:18:21;;;;;;;1.93;1.27;;;;;;;;;;7433525;19;20144;-91
2023/02/28 18:20:49;;;;;;;2.27;1.17;;;;;;;;;;7434423;19;20133;-90
2023/02/28 18:23:17;;;;;;;2.53;1.53;;;;;;;;;;7431161;19;20160;-90
2023/02/28 18:25:44;;;;;;;2.10;1.87;;;;;;;;;;7433848;19;20149;-89
2023/02/28 18:28:11;;;;;;;4.10;1.87;;;;;;;;;;7429575;19;20172;-90
2023/02/28 18:30:37;;;;;;;1.70;1.53;;;;;;;;;;7434298;19;20133;-92
2023/02/28 18:33:04;;;;;;;1.03;1.03;;;;;;;;;;7425496;19;20141;-93
2023/02/28 18:35:34;;;;;;;1.97;1.77;;;;;;;;;;7428754;19;20238;-92
2023/02/28 18:38:07;;;;;;;1.67;1.57;;;;;;;;;;7430736;19;20169;-92
2023/02/28 18:40:34;;;;;;;1.77;1.63;;;;;;;;;;7427082;19;20140;-92
2023/02/28 18:43:01;;;;;;;1.43;0.97;;;;;;;;;;7420336;19;20200;-94
2023/02/28 18:45:27;;;;;;;1.30;1.07;;;;;;;;;;7409385;19;20474;-93
2023/02/28 18:47:54;;;;;;;0.77;0.77;;;;;;;;;;7408807;19;20152;-93
2023/02/28 18:50:21;;;;;;;1.40;1.30;;;;;;;;;;7413233;19;20502;-91
2023/02/28 18:52:47;;;;;;;0.70;0.70;;;;;;;;;;7413206;19;20505;-94
2023/02/28 18:55:17;;;;;;;1.30;1.20;;;;;;;;;;7412238;19;20482;-92
2023/02/28 18:57:45;;;;;;;1.90;1.53;;;;;;;;;;7411445;19;20661;-93
2023/02/28 19:00:13;;;;;;;1.37;1.27;;;;;;;;;;7412492;19;20141;-93
2023/02/28 19:02:41;;;;;;;2.50;1.57;;;;;;;;;;7420840;19;20166;-91
2023/02/28 19:05:08;;;;;;;2.30;1.00;;;;;;;;;;7427708;19;20161;-92
2023/02/28 19:07:34;;;;;;;2.73;1.47;;;;;;;;;;7431110;19;20218;-91
2023/02/28 19:10:01;;;;;;;1.70;1.47;;;;;;;;;;7433691;19;20129;-92
2023/02/28 19:12:28;;;;;;;0.77;0.77;;;;;;;;;;7433262;19;20164;-92
2023/02/28 19:14:54;;;;;;;4.43;1.83;;;;;;;;;;7432373;19;20145;-91
2023/02/28 19:17:21;;;;;;;1.60;1.43;;;;;;;;;;7430870;19;20168;-91
2023/02/28 19:19:47;;;;;;;0.83;0.83;;;;;;;;;;7432633;19;20168;-91
2023/02/28 19:22:14;;;;;;;1.50;1.40;;;;;;;;;;7431958;19;20129;-92
2023/02/28 19:24:40;;;;;;;1.47;1.37;;;;;;;;;;7427783;19;20145;-91
2023/02/28 19:27:07;;;;;;;1.73;1.63;;;;;;;;;;7430472;19;20168;-91
2023/02/28 19:29:33;;;;;;;1.63;1.53;;;;;;;;;;7420512;19;20149;-91
2023/02/28 19:32:00;;;;;;;1.77;1.67;;;;;;;;;;7400780;19;20137;-84
2023/02/28 19:34:26;;;;;;;2.40;1.87;;;;;;;;;;7399574;19;20772;-85
2023/02/28 19:36:53;;;;;;;1.13;1.07;;;;;;;;;;7395557;19;20160;-86
2023/02/28 19:39:19;;;;;;;0.80;0.80;;;;;;;;;;7412136;19;20144;-91
2023/02/28 19:41:46;;;;;;;2.13;1.97;;;;;;;;;;7423469;19;20173;-92
2023/02/28 19:44:13;;;;;;;2.30;2.20;;;;;;;;;;7423407;19;20451;-92
2023/02/28 19:46:39;;;;;;;1.47;1.40;;;;;;;;;;7423172;19;20616;-92
2023/02/28 19:49:06;;;;;;;1.40;1.30;;;;;;;;;;7413590;19;20141;-94
2023/02/28 19:51:33;;;;;;;5.30;1.80;;;;;;;;;;7409428;19;20591;-93
2023/02/28 19:53:59;;;;;;;1.87;1.77;;;;;;;;;;7409333;19;20260;-91
2023/02/28 19:56:26;;;;;;;0.90;0.83;;;;;;;;;;7407881;19;20180;-94
2023/02/28 19:58:52;;;;;;;0.90;0.90;;;;;;;;;;7414313;19;20155;-92
2023/02/28 20:01:19;;;;;;;1.50;1.40;;;;;;;;;;7427177;19;20137;-92
2023/02/28 20:03:47;;;;;;;2.27;1.40;;;;;;;;;;7426733;19;20141;-94
2023/02/28 20:06:14;;;;;;;1.47;1.37;;;;;;;;;;7426220;19;20168;-92
2023/02/28 20:08:40;;;;;;;1.63;1.53;;;;;;;;;;7424464;19;20125;-92
2023/02/28 20:11:10;;;;;;;0.63;0.63;;;;;;;;;;7425147;19;20133;-94
2023/02/28 20:13:36;;;;;;;3.97;1.27;;;;;;;;;;7423079;19;20492;-94
2023/02/28 20:16:05;;;;;;;1.90;1.10;;;;;;;;;;7416943;19;20135;-94
2023/02/28 20:18:32;;;;;;;1.53;1.33;;;;;;;;;;7425621;19;20157;-92
2023/02/28 20:21:00;;;;;;;2.03;1.90;;;;;;;;;;7421160;19;20129;-93
2023/02/28 20:23:28;;;;;;;1.20;1.10;;;;;;;;;;7425326;19;20117;-93
2023/02/28 20:26:00;;;;;;;2.00;1.90;;;;;;;;;;7427142;19;20161;-93
2023/02/28 20:28:27;;;;;;;1.20;1.20;;;;;;;;;;7423135;19;20578;-93
2023/02/28 20:30:54;;;;;;;1.10;1.00;;;;;;;;;;7425883;19;20140;-94
2023/02/28 20:33:21;;;;;;;1.97;1.87;;;;;;;;;;7425785;19;20121;-93
2023/02/28 20:35:48;;;;;;;1.10;1.10;;;;;;;;;;7427797;19;20470;-93
2023/02/28 20:38:15;;;;;;;1.10;1.10;;;;;;;;;;7426581;19;20168;-92
2023/02/28 20:40:42;;;;;;;2.27;1.93;;;;;;;;;;7428789;19;20171;-92
2023/02/28 20:43:08;;;;;;;1.50;1.40;;;;;;;;;;7425858;19;20129;-94
2023/02/28 20:45:35;;;;;;;1.27;1.17;;;;;;;;;;7426428;19;20131;-93
2023/02/28 20:48:02;;;;;;;1.60;1.50;;;;;;;;;;7423564;19;20164;-92
2023/02/28 20:50:28;;;;;;;2.20;1.97;;;;;;;;;;7426452;19;20136;-92
2023/02/28 20:52:55;;;;;;;1.37;1.27;;;;;;;;;;7425570;19;20136;-93
2023/02/28 20:55:21;;;;;;;1.90;1.43;;;;;;;;;;7426026;19;20139;-92
2023/02/28 20:57:48;;;;;;;1.50;1.40;;;;;;;;;;7424616;19;20133;-93
2023/02/28 21:00:19;;;;;;;1.77;1.67;;;;;;;;;;7425995;19;20129;-94
2023/02/28 21:02:45;;;;;;;0.80;0.80;;;;;;;;;;7425848;19;20125;-93
2023/02/28 21:05:13;;;;;;;6.17;2.00;;;;;;;;;;7426312;19;20153;-94
2023/02/28 21:07:39;;;;;;;0.93;0.93;;;;;;;;;;7423789;19;20132;-94
2023/02/28 21:10:06;;;;;;;1.87;1.60;;;;;;;;;;7425829;19;20169;-94
2023/02/28 21:12:34;;;;;;;1.57;1.47;;;;;;;;;;7425004;19;20165;-93
2023/02/28 21:15:01;;;;;;;6.03;1.03;;;;;;;;;;7426060;19;20129;-92
2023/02/28 21:17:28;;;;;;;4.43;2.23;;;;;;;;;;7424862;19;20159;-93
2023/02/28 21:19:54;;;;;;;1.70;1.50;;;;;;;;;;7424991;19;20133;-95
2023/02/28 21:22:21;;;;;;;1.57;1.23;;;;;;;;;;7424654;19;20134;-94
2023/02/28 21:24:48;;;;;;;3.83;1.63;;;;;;;;;;7423628;19;20169;-94
2023/02/28 21:27:15;;;;;;;1.53;1.43;;;;;;;;;;7424618;19;20130;-94
2023/02/28 21:29:41;;;;;;;1.37;1.27;;;;;;;;;;7423311;19;20140;-95
2023/02/28 21:32:08;;;;;;;0.93;0.90;;;;;;;;;;7425574;19;20124;-94
2023/02/28 21:34:35;;;;;;;1.27;1.17;;;;;;;;;;7424684;19;20129;-93
2023/02/28 21:37:01;;;;;;;1.47;1.37;;;;;;;;;;7422512;19;20137;-93
2023/02/28 21:39:28;;;;;;;1.80;1.13;;;;;;;;;;7424006;19;20137;-93
2023/02/28 21:41:56;;;;;;;3.13;1.30;;;;;;;;;;7423445;19;20121;-94
2023/02/28 21:44:22;;;;;;;2.37;1.30;;;;;;;;;;7423025;19;20133;-93
2023/02/28 21:46:55;;;;;;;1.67;1.50;;;;;;;;;;7421808;19;20562;-93
2023/02/28 21:49:22;;;;;;;1.60;1.50;;;;;;;;;;7421726;19;20140;-95
2023/02/28 21:51:49;;;;;;;1.33;1.30;;;;;;;;;;7422784;19;20129;-93
2023/02/28 21:54:15;;;;;;;1.30;1.30;;;;;;;;;;7423281;19;20764;-94
2023/02/28 21:56:42;;;;;;;1.43;1.33;;;;;;;;;;7422056;19;20133;-94
2023/02/28 21:59:09;;;;;;;1.23;1.13;;;;;;;;;;7421477;19;20532;-93
2023/02/28 22:01:40;;;;;;;2.20;1.83;;;;;;;;;;7422907;19;20129;-94
2023/02/28 22:04:08;;;;;;;1.60;1.50;;;;;;;;;;7421803;19;20165;-93
2023/02/28 22:06:39;;;;;;;1.10;1.00;;;;;;;;;;7421297;19;20153;-93
2023/02/28 22:09:08;;;;;;;1.20;1.10;;;;;;;;;;7421132;19;20170;-96
2023/02/28 22:11:36;;;;;;;2.17;1.30;;;;;;;;;;7421463;19;20142;-94
2023/02/28 22:14:03;;;;;;;0.83;0.83;;;;;;;;;;7422412;19;20161;-94
2023/02/28 22:16:30;;;;;;;1.13;1.13;;;;;;;;;;7421834;19;20157;-94
2023/02/28 22:19:10;;;;;;;1.20;1.07;;;;;;;;;;7422856;19;20133;-94
2023/02/28 22:21:38;;;;;;;2.53;1.53;;;;;;;;;;7423136;19;20126;-95
2023/02/28 22:24:05;;;;;;;1.37;1.33;;;;;;;;;;7423790;19;20133;-95
2023/02/28 22:26:31;;;;;;;1.17;1.07;;;;;;;;;;7423159;19;20156;-94
2023/02/28 22:28:59;;;;;;;1.33;1.23;;;;;;;;;;7422582;19;20125;-94
2023/02/28 22:31:28;;;;;;;1.60;1.50;;;;;;;;;;7423061;19;20133;-94
2023/02/28 22:33:57;;;;;;;1.77;1.47;;;;;;;;;;7422899;19;20126;-94
2023/02/28 22:36:24;;;;;;;1.07;1.03;;;;;;;;;;7424778;19;20176;-94
2023/02/28 22:38:51;;;;;;;1.23;1.17;;;;;;;;;;7429351;19;20125;-94
2023/02/28 22:41:20;;;;;;;1.60;1.00;;;;;;;;;;7429090;19;20140;-95
2023/02/28 22:43:53;;;;;;;2.10;1.97;;;;;;;;;;7428208;19;20133;-93
2023/02/28 22:46:20;;;;;;;1.70;1.03;;;;;;;;;;7428853;19;20201;-94
2023/02/28 22:48:47;;;;;;;0.97;0.97;;;;;;;;;;7428051;19;20125;-94
2023/02/28 22:51:16;;;;;;;1.00;1.00;;;;;;;;;;7429370;19;20819;-94
2023/02/28 22:53:45;;;;;;;1.30;1.20;;;;;;;;;;7429341;19;20157;-94
2023/02/28 22:56:14;;;;;;;1.20;1.20;;;;;;;;;;7428952;19;20128;-94
2023/02/28 22:58:40;;;;;;;2.37;1.50;;;;;;;;;;7428856;19;20129;-94
2023/02/28 23:01:12;;;;;;;1.47;1.37;;;;;;;;;;7428551;19;20153;-94
2023/02/28 23:03:40;;;;;;;1.20;1.20;;;;;;;;;;7429549;19;20129;-94
2023/02/28 23:06:19;;;;;;;1.50;1.17;;;;;;;;;;7427494;19;20125;-94
2023/02/28 23:08:46;;;;;;;0.77;0.77;;;;;;;;;;7427800;19;20125;-94
2023/02/28 23:11:22;;;;;;;1.03;1.03;;;;;;;;;;7427635;19;20156;-94
2023/02/28 23:13:58;;;;;;;1.20;1.07;;;;;;;;;;7428412;19;20137;-94
2023/02/28 23:16:25;;;;;;;1.03;1.03;;;;;;;;;;7426850;19;20163;-94
2023/02/28 23:18:51;;;;;;;0.67;0.63;;;;;;;;;;7427708;19;20121;-93
2023/02/28 23:21:18;;;;;;;2.37;1.60;;;;;;;;;;7427130;19;20121;-94
2023/02/28 23:23:44;;;;;;;1.27;1.23;;;;;;;;;;7427714;19;20129;-93
2023/02/28 23:26:20;;;;;;;1.60;1.33;;;;;;;;;;7427033;19;20178;-94
2023/02/28 23:28:47;;;;;;;2.60;1.90;;;;;;;;;;7426110;19;20121;-92
2023/02/28 23:31:14;;;;;;;2.07;1.97;;;;;;;;;;7427998;19;20133;-94
2023/02/28 23:33:40;;;;;;;0.90;0.90;;;;;;;;;;7427518;19;20129;-94
2023/02/28 23:36:13;;;;;;;1.37;1.33;;;;;;;;;;7428118;19;20156;-95
